sensor_id;sensor_type;location;lat;lon;timestamp;pressure;altitude;pressure_sealevel;temperature;humidity
37778;BME280;23615;51.506;7.678;2023-04-07T00:01:35;99805.72;;;7.69;98.06
37778;BME280;23615;51.506;7.678;2023-04-07T00:04:01;99804.09;;;7.68;98.22
37778;BME280;23615;51.506;7.678;2023-04-07T00:06:26;99801.22;;;7.70;97.89
37778;BME280;23615;51.506;7.678;2023-04-07T00:08:51;99802.84;;;7.71;97.84
37778;BME280;23615;51.506;7.678;2023-04-07T00:11:17;99797.53;;;7.71;98.42
37778;BME280;23615;51.506;7.678;2023-04-07T00:13:42;99802.66;;;7.72;98.34
37778;BME280;23615;51.506;7.678;2023-04-07T00:16:07;99805.69;;;7.76;97.95
37778;BME280;23615;51.506;7.678;2023-04-07T00:18:33;99806.94;;;7.73;98.22
37778;BME280;23615;51.506;7.678;2023-04-07T00:20:58;99801.38;;;7.75;97.99
37778;BME280;23615;51.506;7.678;2023-04-07T00:23:23;99799.56;;;7.75;98.11
37778;BME280;23615;51.506;7.678;2023-04-07T00:25:49;99801.19;;;7.76;97.93
37778;BME280;23615;51.506;7.678;2023-04-07T00:28:14;99793.06;;;7.71;98.55
37778;BME280;23615;51.506;7.678;2023-04-07T00:30:39;99788.56;;;7.72;98.55
37778;BME280;23615;51.506;7.678;2023-04-07T00:33:04;99800.81;;;7.73;98.49
37778;BME280;23615;51.506;7.678;2023-04-07T00:35:30;99789.56;;;7.71;98.44
37778;BME280;23615;51.506;7.678;2023-04-07T00:37:55;99785.69;;;7.73;98.61
37778;BME280;23615;51.506;7.678;2023-04-07T00:40:21;99787.28;;;7.74;98.65
37778;BME280;23615;51.506;7.678;2023-04-07T00:42:46;99787.53;;;7.73;98.34
37778;BME280;23615;51.506;7.678;2023-04-07T00:45:11;99783.66;;;7.69;98.88
37778;BME280;23615;51.506;7.678;2023-04-07T00:47:37;99786.09;;;7.70;99.13
37778;BME280;23615;51.506;7.678;2023-04-07T00:50:03;99778.13;;;7.70;99.12
37778;BME280;23615;51.506;7.678;2023-04-07T00:52:30;99779.78;;;7.71;99.25
37778;BME280;23615;51.506;7.678;2023-04-07T00:54:56;99779.97;;;7.70;98.80
37778;BME280;23615;51.506;7.678;2023-04-07T00:57:22;99772.63;;;7.72;98.95
37778;BME280;23615;51.506;7.678;2023-04-07T00:59:49;99770.13;;;7.77;99.17
37778;BME280;23615;51.506;7.678;2023-04-07T01:02:23;99777.50;;;7.75;98.88
37778;BME280;23615;51.506;7.678;2023-04-07T01:05:09;99769.75;;;7.73;98.72
37778;BME280;23615;51.506;7.678;2023-04-07T01:07:51;99771.19;;;7.69;98.93
37778;BME280;23615;51.506;7.678;2023-04-07T01:11:07;99770.16;;;7.70;99.56
37778;BME280;23615;51.506;7.678;2023-04-07T01:13:45;99766.06;;;7.74;99.03
37778;BME280;23615;51.506;7.678;2023-04-07T01:19:28;99768.50;;;7.76;99.43
37778;BME280;23615;51.506;7.678;2023-04-07T01:21:57;99770.94;;;7.77;99.34
37778;BME280;23615;51.506;7.678;2023-04-07T01:29:54;99766.47;;;7.78;99.16
37778;BME280;23615;51.506;7.678;2023-04-07T01:32:20;99759.09;;;7.80;99.32
37778;BME280;23615;51.506;7.678;2023-04-07T01:34:49;99747.88;;;7.78;99.62
37778;BME280;23615;51.506;7.678;2023-04-07T01:37:16;99754.19;;;7.77;99.19
37778;BME280;23615;51.506;7.678;2023-04-07T01:39:42;99754.00;;;7.78;99.36
37778;BME280;23615;51.506;7.678;2023-04-07T01:42:08;99748.88;;;7.77;99.70
37778;BME280;23615;51.506;7.678;2023-04-07T01:44:35;99748.06;;;7.76;99.58
37778;BME280;23615;51.506;7.678;2023-04-07T01:47:01;99755.22;;;7.76;99.73
37778;BME280;23615;51.506;7.678;2023-04-07T01:49:29;99757.88;;;7.82;99.77
37778;BME280;23615;51.506;7.678;2023-04-07T01:51:56;99754.41;;;7.82;99.53
37778;BME280;23615;51.506;7.678;2023-04-07T01:54:22;99746.84;;;7.79;99.94
37778;BME280;23615;51.506;7.678;2023-04-07T01:56:48;99752.56;;;7.76;99.69
37778;BME280;23615;51.506;7.678;2023-04-07T01:59:13;99743.59;;;7.77;99.98
37778;BME280;23615;51.506;7.678;2023-04-07T02:01:38;99755.84;;;7.78;99.96
37778;BME280;23615;51.506;7.678;2023-04-07T02:06:54;99754.59;;;7.80;100.00
37778;BME280;23615;51.506;7.678;2023-04-07T02:09:21;99747.25;;;7.82;99.64
37778;BME280;23615;51.506;7.678;2023-04-07T02:11:49;99744.81;;;7.81;100.00
37778;BME280;23615;51.506;7.678;2023-04-07T02:14:16;99752.56;;;7.82;99.88
37778;BME280;23615;51.506;7.678;2023-04-07T02:16:45;99747.63;;;7.86;99.92
37778;BME280;23615;51.506;7.678;2023-04-07T02:19:10;99754.56;;;7.87;99.78
37778;BME280;23615;51.506;7.678;2023-04-07T02:21:38;99746.00;;;7.85;99.95
37778;BME280;23615;51.506;7.678;2023-04-07T02:24:05;99742.09;;;7.87;99.78
37778;BME280;23615;51.506;7.678;2023-04-07T02:26:34;99740.69;;;7.85;99.78
37778;BME280;23615;51.506;7.678;2023-04-07T02:29:00;99745.56;;;7.88;99.77
37778;BME280;23615;51.506;7.678;2023-04-07T02:31:25;99749.25;;;7.87;99.42
37778;BME280;23615;51.506;7.678;2023-04-07T02:33:51;99745.78;;;7.86;99.90
37778;BME280;23615;51.506;7.678;2023-04-07T02:36:16;99740.88;;;7.90;100.00
37778;BME280;23615;51.506;7.678;2023-04-07T02:38:41;99739.44;;;7.87;100.00
37778;BME280;23615;51.506;7.678;2023-04-07T02:41:06;99745.78;;;7.86;100.00
37778;BME280;23615;51.506;7.678;2023-04-07T02:43:32;99743.72;;;7.88;100.00
37778;BME280;23615;51.506;7.678;2023-04-07T02:45:57;99741.06;;;7.88;100.00
37778;BME280;23615;51.506;7.678;2023-04-07T02:48:22;99738.03;;;7.85;100.00
37778;BME280;23615;51.506;7.678;2023-04-07T02:50:48;99744.97;;;7.86;100.00
37778;BME280;23615;51.506;7.678;2023-04-07T02:53:13;99742.31;;;7.86;100.00
37778;BME280;23615;51.506;7.678;2023-04-07T02:55:38;99742.72;;;7.89;100.00
37778;BME280;23615;51.506;7.678;2023-04-07T02:58:03;99734.13;;;7.87;100.00
37778;BME280;23615;51.506;7.678;2023-04-07T03:00:29;99745.97;;;7.92;99.97
37778;BME280;23615;51.506;7.678;2023-04-07T03:02:54;99751.50;;;7.90;100.00
37778;BME280;23615;51.506;7.678;2023-04-07T03:05:19;99746.00;;;7.85;99.96
37778;BME280;23615;51.506;7.678;2023-04-07T03:07:45;99743.13;;;7.86;100.00
37778;BME280;23615;51.506;7.678;2023-04-07T03:10:10;99749.47;;;7.85;100.00
37778;BME280;23615;51.506;7.678;2023-04-07T03:12:35;99750.06;;;7.87;100.00
37778;BME280;23615;51.506;7.678;2023-04-07T03:15:01;99753.53;;;7.88;100.00
37778;BME280;23615;51.506;7.678;2023-04-07T03:17:26;99740.06;;;7.89;100.00
37778;BME280;23615;51.506;7.678;2023-04-07T03:19:51;99749.03;;;7.88;100.00
37778;BME280;23615;51.506;7.678;2023-04-07T03:22:16;99750.88;;;7.88;100.00
37778;BME280;23615;51.506;7.678;2023-04-07T03:24:42;99746.59;;;7.87;100.00
37778;BME280;23615;51.506;7.678;2023-04-07T03:27:07;99744.75;;;7.87;100.00
37778;BME280;23615;51.506;7.678;2023-04-07T03:29:32;99737.81;;;7.86;100.00
37778;BME280;23615;51.506;7.678;2023-04-07T03:31:58;99742.31;;;7.86;100.00
37778;BME280;23615;51.506;7.678;2023-04-07T03:34:23;99746.38;;;7.88;100.00
37778;BME280;23615;51.506;7.678;2023-04-07T03:36:48;99754.34;;;7.88;100.00
37778;BME280;23615;51.506;7.678;2023-04-07T03:39:13;99749.88;;;7.89;100.00
37778;BME280;23615;51.506;7.678;2023-04-07T03:41:39;99740.25;;;7.88;100.00
37778;BME280;23615;51.506;7.678;2023-04-07T03:44:04;99746.19;;;7.90;100.00
37778;BME280;23615;51.506;7.678;2023-04-07T03:46:29;99750.69;;;7.89;100.00
37778;BME280;23615;51.506;7.678;2023-04-07T03:48:55;99748.03;;;7.89;100.00
37778;BME280;23615;51.506;7.678;2023-04-07T03:51:20;99747.56;;;7.93;100.00
37778;BME280;23615;51.506;7.678;2023-04-07T03:53:46;99751.50;;;7.90;100.00
37778;BME280;23615;51.506;7.678;2023-04-07T03:56:11;99757.81;;;7.89;100.00
37778;BME280;23615;51.506;7.678;2023-04-07T03:58:37;99751.28;;;7.92;100.00
37778;BME280;23615;51.506;7.678;2023-04-07T04:01:02;99748.38;;;7.93;100.00
37778;BME280;23615;51.506;7.678;2023-04-07T04:03:28;99743.31;;;7.92;100.00
37778;BME280;23615;51.506;7.678;2023-04-07T04:05:53;99755.34;;;7.94;100.00
37778;BME280;23615;51.506;7.678;2023-04-07T04:08:19;99749.66;;;7.91;100.00
37778;BME280;23615;51.506;7.678;2023-04-07T04:10:44;99747.19;;;7.89;100.00
37778;BME280;23615;51.506;7.678;2023-04-07T04:13:10;99749.88;;;7.89;100.00
37778;BME280;23615;51.506;7.678;2023-04-07T04:15:35;99759.25;;;7.92;100.00
37778;BME280;23615;51.506;7.678;2023-04-07T04:18:01;99759.25;;;7.92;100.00
37778;BME280;23615;51.506;7.678;2023-04-07T04:20:26;99754.97;;;7.91;100.00
37778;BME280;23615;51.506;7.678;2023-04-07T04:22:51;99754.16;;;7.90;100.00
37778;BME280;23615;51.506;7.678;2023-04-07T04:25:17;99756.19;;;7.88;100.00
37778;BME280;23615;51.506;7.678;2023-04-07T04:27:42;99757.81;;;7.89;100.00
37778;BME280;23615;51.506;7.678;2023-04-07T04:30:07;99755.84;;;7.78;100.00
37778;BME280;23615;51.506;7.678;2023-04-07T04:32:33;99765.84;;;7.82;100.00
37778;BME280;23615;51.506;7.678;2023-04-07T04:34:59;99759.25;;;7.85;100.00
37778;BME280;23615;51.506;7.678;2023-04-07T04:37:24;99755.78;;;7.84;100.00
37778;BME280;23615;51.506;7.678;2023-04-07T04:39:50;99768.06;;;7.85;100.00
37778;BME280;23615;51.506;7.678;2023-04-07T04:42:15;99760.69;;;7.87;100.00
37778;BME280;23615;51.506;7.678;2023-04-07T04:44:40;99763.34;;;7.87;100.00
37778;BME280;23615;51.506;7.678;2023-04-07T04:47:06;99769.28;;;7.89;100.00
37778;BME280;23615;51.506;7.678;2023-04-07T04:49:31;99768.25;;;7.91;100.00
37778;BME280;23615;51.506;7.678;2023-04-07T04:51:56;99768.19;;;7.97;100.00
37778;BME280;23615;51.506;7.678;2023-04-07T04:54:22;99770.47;;;7.94;100.00
37778;BME280;23615;51.506;7.678;2023-04-07T04:56:47;99770.66;;;7.92;100.00
37778;BME280;23615;51.506;7.678;2023-04-07T04:59:12;99775.78;;;7.94;100.00
37778;BME280;23615;51.506;7.678;2023-04-07T05:01:38;99773.94;;;7.94;100.00
37778;BME280;23615;51.506;7.678;2023-04-07T05:04:03;99766.78;;;7.95;100.00
37778;BME280;23615;51.506;7.678;2023-04-07T05:06:28;99773.72;;;7.96;100.00
37778;BME280;23615;51.506;7.678;2023-04-07T05:08:53;99778.63;;;7.92;100.00
37778;BME280;23615;51.506;7.678;2023-04-07T05:11:19;99781.09;;;7.94;100.00
37778;BME280;23615;51.506;7.678;2023-04-07T05:13:46;99779.84;;;7.96;100.00
37778;BME280;23615;51.506;7.678;2023-04-07T05:16:11;99777.59;;;7.93;100.00
37778;BME280;23615;51.506;7.678;2023-04-07T05:18:36;99779.44;;;7.93;100.00
37778;BME280;23615;51.506;7.678;2023-04-07T05:21:02;99779.03;;;7.96;100.00
37778;BME280;23615;51.506;7.678;2023-04-07T05:23:27;99786.03;;;7.83;100.00
37778;BME280;23615;51.506;7.678;2023-04-07T05:25:52;99786.22;;;7.88;100.00
37778;BME280;23615;51.506;7.678;2023-04-07T05:28:18;99788.03;;;7.95;100.00
37778;BME280;23615;51.506;7.678;2023-04-07T05:30:43;99791.28;;;7.97;100.00
37778;BME280;23615;51.506;7.678;2023-04-07T05:33:08;99784.53;;;8.01;100.00
37778;BME280;23615;51.506;7.678;2023-04-07T05:35:34;99794.34;;;8.00;100.00
37778;BME280;23615;51.506;7.678;2023-04-07T05:37:59;99797.81;;;8.01;100.00
37778;BME280;23615;51.506;7.678;2023-04-07T05:40:24;99794.94;;;8.02;100.00
37778;BME280;23615;51.506;7.678;2023-04-07T05:42:49;99795.34;;;8.06;100.00
37778;BME280;23615;51.506;7.678;2023-04-07T05:45:15;99796.16;;;8.06;100.00
37778;BME280;23615;51.506;7.678;2023-04-07T05:47:40;99797.78;;;8.07;100.00
37778;BME280;23615;51.506;7.678;2023-04-07T05:50:06;99798.81;;;8.06;100.00
37778;BME280;23615;51.506;7.678;2023-04-07T05:52:31;99799.84;;;8.05;100.00
37778;BME280;23615;51.506;7.678;2023-04-07T05:54:57;99807.19;;;8.10;100.00
37778;BME280;23615;51.506;7.678;2023-04-07T05:57:22;99801.06;;;8.09;100.00
37778;BME280;23615;51.506;7.678;2023-04-07T05:59:47;99806.13;;;8.11;100.00
37778;BME280;23615;51.506;7.678;2023-04-07T06:02:13;99811.03;;;8.14;100.00
37778;BME280;23615;51.506;7.678;2023-04-07T06:04:38;99810.00;;;8.15;100.00
37778;BME280;23615;51.506;7.678;2023-04-07T06:07:03;99810.41;;;8.18;100.00
37778;BME280;23615;51.506;7.678;2023-04-07T06:09:29;99814.91;;;8.18;100.00
37778;BME280;23615;51.506;7.678;2023-04-07T06:11:54;99818.13;;;8.20;100.00
37778;BME280;23615;51.506;7.678;2023-04-07T06:14:20;99817.94;;;8.21;100.00
37778;BME280;23615;51.506;7.678;2023-04-07T06:16:46;99818.53;;;8.23;100.00
37778;BME280;23615;51.506;7.678;2023-04-07T06:19:11;99821.41;;;8.22;100.00
37778;BME280;23615;51.506;7.678;2023-04-07T06:21:36;99818.38;;;8.18;100.00
37778;BME280;23615;51.506;7.678;2023-04-07T06:24:02;99829.38;;;8.22;100.00
37778;BME280;23615;51.506;7.678;2023-04-07T06:26:27;99825.06;;;8.27;100.00
37778;BME280;23615;51.506;7.678;2023-04-07T06:28:52;99828.75;;;8.26;100.00
37778;BME280;23615;51.506;7.678;2023-04-07T06:31:18;99830.97;;;8.36;100.00
37778;BME280;23615;51.506;7.678;2023-04-07T06:33:44;99839.31;;;8.40;100.00
37778;BME280;23615;51.506;7.678;2023-04-07T06:36:10;99838.75;;;8.31;100.00
37778;BME280;23615;51.506;7.678;2023-04-07T06:38:35;99841.00;;;8.27;100.00
37778;BME280;23615;51.506;7.678;2023-04-07T06:41:01;99838.13;;;8.29;100.00
37778;BME280;23615;51.506;7.678;2023-04-07T06:43:26;99841.56;;;8.43;100.00
37778;BME280;23615;51.506;7.678;2023-04-07T06:45:52;99845.25;;;8.42;100.00
37778;BME280;23615;51.506;7.678;2023-04-07T06:48:17;99841.97;;;8.40;100.00
37778;BME280;23615;51.506;7.678;2023-04-07T06:50:47;99848.31;;;8.45;100.00
37778;BME280;23615;51.506;7.678;2023-04-07T06:53:13;99859.16;;;8.44;100.00
37778;BME280;23615;51.506;7.678;2023-04-07T06:55:38;99856.09;;;8.40;100.00
37778;BME280;23615;51.506;7.678;2023-04-07T06:58:03;99858.69;;;8.47;100.00
37778;BME280;23615;51.506;7.678;2023-04-07T07:00:28;99857.47;;;8.49;100.00
37778;BME280;23615;51.506;7.678;2023-04-07T07:02:55;99860.53;;;8.53;100.00
37778;BME280;23615;51.506;7.678;2023-04-07T07:05:21;99856.03;;;8.47;100.00
37778;BME280;23615;51.506;7.678;2023-04-07T07:07:47;99858.75;;;8.40;100.00
37778;BME280;23615;51.506;7.678;2023-04-07T07:10:13;99860.38;;;8.41;100.00
37778;BME280;23615;51.506;7.678;2023-04-07T07:12:38;99864.47;;;8.44;100.00
37778;BME280;23615;51.506;7.678;2023-04-07T07:15:04;99858.94;;;8.45;100.00
37778;BME280;23615;51.506;7.678;2023-04-07T07:17:29;99868.75;;;8.45;100.00
37778;BME280;23615;51.506;7.678;2023-04-07T07:19:55;99867.06;;;8.50;100.00
37778;BME280;23615;51.506;7.678;2023-04-07T07:22:20;99870.16;;;8.47;100.00
37778;BME280;23615;51.506;7.678;2023-04-07T07:24:45;99875.44;;;8.54;100.00
37778;BME280;23615;51.506;7.678;2023-04-07T07:27:11;99873.50;;;8.68;100.00
37778;BME280;23615;51.506;7.678;2023-04-07T07:29:36;99880.31;;;8.63;100.00
37778;BME280;23615;51.506;7.678;2023-04-07T07:32:01;99889.47;;;8.68;100.00
37778;BME280;23615;51.506;7.678;2023-04-07T07:34:26;99884.34;;;8.66;100.00
37778;BME280;23615;51.506;7.678;2023-04-07T07:36:52;99887.56;;;8.75;100.00
37778;BME280;23615;51.506;7.678;2023-04-07T07:39:17;99889.19;;;8.76;100.00
37778;BME280;23615;51.506;7.678;2023-04-07T07:41:42;99887.00;;;8.73;100.00
37778;BME280;23615;51.506;7.678;2023-04-07T07:44:07;99890.03;;;8.76;100.00
37778;BME280;23615;51.506;7.678;2023-04-07T07:46:33;99893.06;;;8.80;100.00
37778;BME280;23615;51.506;7.678;2023-04-07T07:48:58;99897.59;;;8.79;100.00
37778;BME280;23615;51.506;7.678;2023-04-07T07:51:23;99894.25;;;8.84;100.00
37778;BME280;23615;51.506;7.678;2023-04-07T07:53:49;99896.91;;;8.84;100.00
37778;BME280;23615;51.506;7.678;2023-04-07T07:56:14;99903.19;;;8.96;100.00
37778;BME280;23615;51.506;7.678;2023-04-07T07:58:39;99908.38;;;8.84;100.00
37778;BME280;23615;51.506;7.678;2023-04-07T08:01:05;99914.31;;;8.86;100.00
37778;BME280;23615;51.506;7.678;2023-04-07T08:03:30;99917.84;;;8.80;100.00
37778;BME280;23615;51.506;7.678;2023-04-07T08:05:56;99920.22;;;8.88;100.00
37778;BME280;23615;51.506;7.678;2023-04-07T08:08:21;99920.50;;;8.80;100.00
37778;BME280;23615;51.506;7.678;2023-04-07T08:10:46;99919.25;;;8.83;100.00
37778;BME280;23615;51.506;7.678;2023-04-07T08:13:11;99926.38;;;8.89;100.00
37778;BME280;23615;51.506;7.678;2023-04-07T08:15:38;99935.84;;;8.78;100.00
37778;BME280;23615;51.506;7.678;2023-04-07T08:18:03;99933.75;;;8.87;100.00
37778;BME280;23615;51.506;7.678;2023-04-07T08:20:30;99939.16;;;8.74;100.00
37778;BME280;23615;51.506;7.678;2023-04-07T08:22:56;99940.59;;;8.70;100.00
37778;BME280;23615;51.506;7.678;2023-04-07T08:25:21;99942.81;;;8.79;100.00
37778;BME280;23615;51.506;7.678;2023-04-07T08:27:46;99944.69;;;8.72;100.00
37778;BME280;23615;51.506;7.678;2023-04-07T08:30:11;99939.53;;;8.77;100.00
37778;BME280;23615;51.506;7.678;2023-04-07T08:32:40;99952.84;;;8.77;100.00
37778;BME280;23615;51.506;7.678;2023-04-07T08:35:06;99948.78;;;8.68;100.00
37778;BME280;23615;51.506;7.678;2023-04-07T08:37:32;99950.44;;;8.69;100.00
37778;BME280;23615;51.506;7.678;2023-04-07T08:39:58;99950.06;;;8.59;100.00
37778;BME280;23615;51.506;7.678;2023-04-07T08:42:27;99954.00;;;8.50;100.00
37778;BME280;23615;51.506;7.678;2023-04-07T08:45:00;99954.97;;;8.62;100.00
37778;BME280;23615;51.506;7.678;2023-04-07T08:47:27;99955.66;;;8.44;100.00
37778;BME280;23615;51.506;7.678;2023-04-07T08:49:56;99952.00;;;8.45;100.00
37778;BME280;23615;51.506;7.678;2023-04-07T08:52:32;99961.75;;;8.51;100.00
37778;BME280;23615;51.506;7.678;2023-04-07T08:54:58;99964.13;;;8.66;100.00
37778;BME280;23615;51.506;7.678;2023-04-07T08:57:29;99961.47;;;8.66;100.00
37778;BME280;23615;51.506;7.678;2023-04-07T08:59:55;99959.06;;;8.58;100.00
37778;BME280;23615;51.506;7.678;2023-04-07T09:02:22;99961.94;;;8.56;100.00
37778;BME280;23615;51.506;7.678;2023-04-07T09:04:47;99962.81;;;8.44;100.00
37778;BME280;23615;51.506;7.678;2023-04-07T09:07:13;99970.16;;;8.55;100.00
37778;BME280;23615;51.506;7.678;2023-04-07T09:09:38;99972.94;;;8.67;100.00
37778;BME280;23615;51.506;7.678;2023-04-07T09:12:03;99976.66;;;8.59;100.00
37778;BME280;23615;51.506;7.678;2023-04-07T09:14:29;99972.94;;;8.67;100.00
37778;BME280;23615;51.506;7.678;2023-04-07T09:16:54;99982.75;;;8.66;100.00
37778;BME280;23615;51.506;7.678;2023-04-07T09:19:20;99982.25;;;8.89;100.00
37778;BME280;23615;51.506;7.678;2023-04-07T09:21:52;99985.94;;;8.88;100.00
37778;BME280;23615;51.506;7.678;2023-04-07T09:24:28;99976.22;;;8.69;100.00
37778;BME280;23615;51.506;7.678;2023-04-07T09:29:33;99987.56;;;8.89;100.00
37778;BME280;23615;51.506;7.678;2023-04-07T09:31:58;99990.84;;;8.84;100.00
37778;BME280;23615;51.506;7.678;2023-04-07T09:34:26;99989.03;;;8.78;100.00
37778;BME280;23615;51.506;7.678;2023-04-07T09:36:52;99987.81;;;8.81;100.00
37778;BME280;23615;51.506;7.678;2023-04-07T09:39:17;99981.31;;;9.01;100.00
37778;BME280;23615;51.506;7.678;2023-04-07T09:41:43;99986.69;;;8.95;100.00
37778;BME280;23615;51.506;7.678;2023-04-07T09:44:09;99990.38;;;8.94;100.00
37778;BME280;23615;51.506;7.678;2023-04-07T09:46:34;99986.91;;;9.00;100.00
37778;BME280;23615;51.506;7.678;2023-04-07T09:49:01;99991.13;;;9.08;100.00
37778;BME280;23615;51.506;7.678;2023-04-07T09:51:30;99997.13;;;8.96;100.00
37778;BME280;23615;51.506;7.678;2023-04-07T09:53:57;99995.66;;;9.07;100.00
37778;BME280;23615;51.506;7.678;2023-04-07T09:56:23;100001.56;;;9.09;100.00
37778;BME280;23615;51.506;7.678;2023-04-07T09:58:49;99995.81;;;8.74;100.00
37778;BME280;23615;51.506;7.678;2023-04-07T10:01:19;99996.63;;;8.75;100.00
37778;BME280;23615;51.506;7.678;2023-04-07T10:03:45;99998.06;;;8.77;100.00
37778;BME280;23615;51.506;7.678;2023-04-07T10:06:12;99995.34;;;8.84;100.00
37778;BME280;23615;51.506;7.678;2023-04-07T10:08:39;100003.13;;;8.92;100.00
37778;BME280;23615;51.506;7.678;2023-04-07T10:11:05;100006.16;;;8.95;100.00
37778;BME280;23615;51.506;7.678;2023-04-07T10:13:32;100005.16;;;8.90;100.00
37778;BME280;23615;51.506;7.678;2023-04-07T10:15:58;100011.09;;;8.92;100.00
37778;BME280;23615;51.506;7.678;2023-04-07T10:18:31;100009.00;;;9.00;100.00
37778;BME280;23615;51.506;7.678;2023-04-07T10:21:00;100012.84;;;9.05;100.00
37778;BME280;23615;51.506;7.678;2023-04-07T10:23:52;100014.00;;;9.15;100.00
37778;BME280;23615;51.506;7.678;2023-04-07T10:26:22;100015.03;;;9.14;100.00
37778;BME280;23615;51.506;7.678;2023-04-07T10:28:54;100018.13;;;9.11;100.00
37778;BME280;23615;51.506;7.678;2023-04-07T10:31:21;100021.84;;;9.04;100.00
37778;BME280;23615;51.506;7.678;2023-04-07T10:33:49;100025.94;;;9.06;100.00
37778;BME280;23615;51.506;7.678;2023-04-07T10:36:20;100025.28;;;9.11;100.00
37778;BME280;23615;51.506;7.678;2023-04-07T10:41:40;100028.53;;;9.19;100.00
37778;BME280;23615;51.506;7.678;2023-04-07T10:44:07;100029.13;;;9.21;100.00
37778;BME280;23615;51.506;7.678;2023-04-07T10:49:14;100034.78;;;9.31;100.00
37778;BME280;23615;51.506;7.678;2023-04-07T10:51:43;100034.44;;;9.28;100.00
37778;BME280;23615;51.506;7.678;2023-04-07T10:54:21;100039.28;;;9.37;100.00
37778;BME280;23615;51.506;7.678;2023-04-07T10:59:31;100037.25;;;9.33;100.00
37778;BME280;23615;51.506;7.678;2023-04-07T11:04:48;100043.94;;;9.42;100.00
37778;BME280;23615;51.506;7.678;2023-04-07T11:07:14;100050.72;;;9.38;100.00
37778;BME280;23615;51.506;7.678;2023-04-07T11:09:40;100047.63;;;9.41;100.00
37778;BME280;23615;51.506;7.678;2023-04-07T11:12:06;100046.41;;;9.44;100.00
37778;BME280;23615;51.506;7.678;2023-04-07T11:14:33;100055.19;;;9.44;100.00
37778;BME280;23615;51.506;7.678;2023-04-07T11:16:59;100048.03;;;9.45;100.00
37778;BME280;23615;51.506;7.678;2023-04-07T11:19:26;100053.97;;;9.47;100.00
37778;BME280;23615;51.506;7.678;2023-04-07T11:22:14;100052.31;;;9.46;100.00
37778;BME280;23615;51.506;7.678;2023-04-07T11:24:40;100048.41;;;9.48;100.00
37778;BME280;23615;51.506;7.678;2023-04-07T11:27:09;100055.81;;;9.39;100.00
37778;BME280;23615;51.506;7.678;2023-04-07T11:29:36;100055.81;;;9.46;100.00
37778;BME280;23615;51.506;7.678;2023-04-07T11:32:03;100057.66;;;9.46;100.00
37778;BME280;23615;51.506;7.678;2023-04-07T11:34:33;100060.06;;;9.47;100.00
37778;BME280;23615;51.506;7.678;2023-04-07T11:37:19;100064.78;;;9.52;100.00
37778;BME280;23615;51.506;7.678;2023-04-07T11:39:52;100070.09;;;9.52;100.00
37778;BME280;23615;51.506;7.678;2023-04-07T11:42:34;100071.69;;;9.59;100.00
37778;BME280;23615;51.506;7.678;2023-04-07T11:45:00;100073.91;;;9.62;100.00
37778;BME280;23615;51.506;7.678;2023-04-07T11:47:39;100072.50;;;9.60;100.00
37778;BME280;23615;51.506;7.678;2023-04-07T11:50:05;100077.19;;;9.64;100.00
37778;BME280;23615;51.506;7.678;2023-04-07T11:52:45;100084.13;;;9.65;100.00
37778;BME280;23615;51.506;7.678;2023-04-07T11:55:21;100080.22;;;9.68;100.00
37778;BME280;23615;51.506;7.678;2023-04-07T11:57:49;100082.13;;;9.61;100.00
37778;BME280;23615;51.506;7.678;2023-04-07T12:00:15;100090.53;;;9.58;100.00
37778;BME280;23615;51.506;7.678;2023-04-07T12:02:42;100096.31;;;9.55;100.00
37778;BME280;23615;51.506;7.678;2023-04-07T12:05:08;100100.22;;;9.52;100.00
37778;BME280;23615;51.506;7.678;2023-04-07T12:07:37;100093.91;;;9.47;100.00
37778;BME280;23615;51.506;7.678;2023-04-07T12:10:23;100093.09;;;9.46;100.00
37778;BME280;23615;51.506;7.678;2023-04-07T12:12:50;100101.44;;;9.50;100.00
37778;BME280;23615;51.506;7.678;2023-04-07T12:15:16;100101.25;;;9.51;100.00
37778;BME280;23615;51.506;7.678;2023-04-07T12:17:45;100102.06;;;9.52;100.00
37778;BME280;23615;51.506;7.678;2023-04-07T12:20:12;100102.22;;;9.57;100.00
37778;BME280;23615;51.506;7.678;2023-04-07T12:22:37;100105.88;;;9.62;100.00
37778;BME280;23615;51.506;7.678;2023-04-07T12:25:02;100104.03;;;9.63;100.00
37778;BME280;23615;51.506;7.678;2023-04-07T12:27:28;100108.34;;;9.64;100.00
37778;BME280;23615;51.506;7.678;2023-04-07T12:29:53;100109.31;;;9.69;100.00
37778;BME280;23615;51.506;7.678;2023-04-07T12:32:18;100111.34;;;9.74;100.00
37778;BME280;23615;51.506;7.678;2023-04-07T12:34:43;100112.38;;;9.73;100.00
37778;BME280;23615;51.506;7.678;2023-04-07T12:37:09;100108.28;;;9.70;100.00
37778;BME280;23615;51.506;7.678;2023-04-07T12:39:34;100111.91;;;9.76;100.00
37778;BME280;23615;51.506;7.678;2023-04-07T12:41:59;100118.03;;;9.83;100.00
37778;BME280;23615;51.506;7.678;2023-04-07T12:44:25;100123.19;;;9.78;100.00
37778;BME280;23615;51.506;7.678;2023-04-07T12:46:50;100122.50;;;9.89;100.00
37778;BME280;23615;51.506;7.678;2023-04-07T12:49:16;100121.84;;;9.94;100.00
37778;BME280;23615;51.506;7.678;2023-04-07T12:51:41;100127.97;;;9.94;100.00
37778;BME280;23615;51.506;7.678;2023-04-07T12:54:06;100129.81;;;10.00;100.00
37778;BME280;23615;51.506;7.678;2023-04-07T12:56:32;100124.03;;;10.03;100.00
37778;BME280;23615;51.506;7.678;2023-04-07T12:58:57;100119.06;;;10.07;100.00
37778;BME280;23615;51.506;7.678;2023-04-07T13:01:22;100128.31;;;10.04;100.00
37778;BME280;23615;51.506;7.678;2023-04-07T13:03:48;100123.97;;;10.10;100.00
37778;BME280;23615;51.506;7.678;2023-04-07T13:06:13;100126.03;;;10.08;100.00
37778;BME280;23615;51.506;7.678;2023-04-07T13:08:39;100123.09;;;10.16;99.26
37778;BME280;23615;51.506;7.678;2023-04-07T13:11:05;100127.22;;;10.19;98.87
37778;BME280;23615;51.506;7.678;2023-04-07T13:13:30;100124.81;;;10.10;98.95
37778;BME280;23615;51.506;7.678;2023-04-07T13:15:56;100136.66;;;10.14;99.47
37778;BME280;23615;51.506;7.678;2023-04-07T13:18:22;100135.97;;;10.26;99.92
37778;BME280;23615;51.506;7.678;2023-04-07T13:20:47;100139.41;;;10.33;99.15
37778;BME280;23615;51.506;7.678;2023-04-07T13:23:13;100137.75;;;10.32;99.64